EDV5187 KLGA-CYYZ
Flight info
| Callsign | EDV5187 |
|---|---|
| Flight time | N/A |
| Altitude | 30000 |
| Route | DCT GAYEL Q818 WOZEE LINNG3 |
| Aircraft | CRJ9/M-SDFGIRWY/S |
Departure
| Time | 2026-05-05 11:35 |
|---|---|
| Airport | LaGuardia Airport (KLGA) |
Arrival
| Time | N/A |
|---|---|
| Airport | Toronto Pearson International Airport (CYYZ) |
| Time | Latitude | Longitude | Altitude | Speed | Heading |
|---|---|---|---|---|---|
| 2026-05-05 11:24 | 40.76933 | -73.86221 | 18 ft | 0 kts | 132° |
| 2026-05-05 11:31 | 40.76935 | -73.86224 | 18 ft | 4 kts | 132° |
| 2026-05-05 11:31 | 40.76941 | -73.86233 | 18 ft | 1 kts | 132° |
| 2026-05-05 11:31 | 40.76947 | -73.86241 | 19 ft | 4 kts | 132° |
| 2026-05-05 11:31 | 40.76953 | -73.86250 | 19 ft | 1 kts | 132° |
| 2026-05-05 11:32 | 40.76955 | -73.86254 | 19 ft | 1 kts | 132° |
| 2026-05-05 11:32 | 40.76958 | -73.86258 | 18 ft | 1 kts | 132° |
| 2026-05-05 11:32 | 40.76959 | -73.86258 | 18 ft | 0 kts | 132° |
| 2026-05-05 11:33 | 40.76958 | -73.86258 | 18 ft | 1 kts | 127° |
| 2026-05-05 11:33 | 40.77001 | -73.86199 | 18 ft | 17 kts | 30° |
| 2026-05-05 11:33 | 40.77109 | -73.86082 | 19 ft | 20 kts | 49° |
| 2026-05-05 11:33 | 40.77114 | -73.85904 | 10 ft | 19 kts | 102° |
| 2026-05-05 11:34 | 40.77173 | -73.85774 | 12 ft | 16 kts | 27° |
| 2026-05-05 11:34 | 40.77258 | -73.85819 | 15 ft | 18 kts | 307° |
| 2026-05-05 11:34 | 40.77432 | -73.86183 | 13 ft | 85 kts | 301° |
| 2026-05-05 11:34 | 40.77889 | -73.87141 | 16 ft | 157 kts | 303° |
| 2026-05-05 11:35 | 40.78595 | -73.88442 | 343 ft | 189 kts | 304° |
| 2026-05-05 11:35 | 40.79390 | -73.89866 | 1296 ft | 185 kts | 306° |
| 2026-05-05 11:35 | 40.80422 | -73.90784 | 2675 ft | 192 kts | 335° |
| 2026-05-05 11:35 | 40.81799 | -73.91116 | 3419 ft | 200 kts | 342° |
| 2026-05-05 11:36 | 40.83112 | -73.91326 | 4511 ft | 184 kts | 345° |
| 2026-05-05 11:36 | 40.84416 | -73.91472 | 5135 ft | 197 kts | 346° |
| 2026-05-05 11:36 | 40.85871 | -73.91644 | 5483 ft | 224 kts | 347° |
| 2026-05-05 11:36 | 40.87501 | -73.91864 | 5953 ft | 247 kts | 347° |
| 2026-05-05 11:37 | 40.89280 | -73.92128 | 6533 ft | 266 kts | 347° |
| 2026-05-05 11:37 | 40.91187 | -73.92432 | 7137 ft | 284 kts | 347° |
| 2026-05-05 11:37 | 40.93162 | -73.92760 | 8015 ft | 289 kts | 347° |
| 2026-05-05 11:37 | 40.95175 | -73.93110 | 8932 ft | 295 kts | 347° |
| 2026-05-05 11:38 | 40.97231 | -73.93475 | 9823 ft | 301 kts | 347° |
| 2026-05-05 11:38 | 40.99335 | -73.93857 | 10534 ft | 313 kts | 347° |
| 2026-05-05 11:38 | 41.01566 | -73.94277 | 10887 ft | 337 kts | 347° |
| 2026-05-05 11:38 | 41.03950 | -73.94741 | 11053 ft | 350 kts | 347° |
| 2026-05-05 11:39 | 41.06389 | -73.95224 | 11119 ft | 359 kts | 347° |
| 2026-05-05 11:39 | 41.08860 | -73.95716 | 11140 ft | 359 kts | 347° |
| 2026-05-05 11:39 | 41.10492 | -73.96041 | 11146 ft | 359 kts | 347° |
| 2026-05-05 11:39 | 41.13804 | -73.96699 | 11139 ft | 360 kts | 347° |
| 2026-05-05 11:40 | 41.13970 | -73.96732 | 11140 ft | 360 kts | 347° |